Time;durP1;ratioP1;P1;durP2;ratioP2;P2;SDS_P1;SDS_P2;PMS_P1;PMS_P2;Temp;Humidity;BMP_temperature;BMP_pressure;BME280_temperature;BME280_humidity;BME280_pressure;Samples;Min_cycle;Max_cycle;Signal;HPM_P1;HPM_P2
2021/12/23 00:00:01;;;;;;;20.53;12.03;;;;;;;;;;5045675;28;20193;-69
2021/12/23 00:02:26;;;;;;;23.07;13.10;;;;;;;;;;5031166;28;20193;-69
2021/12/23 00:04:51;;;;;;;22.37;12.70;;;;;;;;;;5045890;28;20194;-69
2021/12/23 00:07:17;;;;;;;20.43;11.73;;;;;;;;;;5037556;28;20284;-69
2021/12/23 00:12:13;;;;;;;19.57;12.23;;;;;;;;;;5029495;28;20202;-69
2021/12/23 00:14:39;;;;;;;27.03;12.33;;;;;;;;;;5039851;28;20655;-69
2021/12/23 00:23:21;;;;;;;20.30;11.50;;;;;;;;;;5040677;28;20207;-69
2021/12/23 00:25:27;;;;;;;23.07;12.57;;;;;;;;;;5036605;28;20207;-69
2021/12/23 00:27:52;;;;;;;19.77;11.30;;;;;;;;;;5034566;28;20182;-69
2021/12/23 00:30:17;;;;;;;19.57;11.83;;;;;;;;;;5039026;28;20205;-69
2021/12/23 00:32:43;;;;;;;22.40;11.70;;;;;;;;;;5038815;28;20197;-69
2021/12/23 00:35:09;;;;;;;21.60;11.93;;;;;;;;;;5033622;28;20193;-69
2021/12/23 00:37:42;;;;;;;23.67;11.93;;;;;;;;;;5037398;28;20755;-69
2021/12/23 00:40:11;;;;;;;24.20;12.77;;;;;;;;;;5031660;28;20539;-69
2021/12/23 00:42:38;;;;;;;24.93;12.27;;;;;;;;;;5037830;28;20288;-69
2021/12/23 00:45:05;;;;;;;20.80;12.27;;;;;;;;;;5036259;28;20185;-69
2021/12/23 00:47:30;;;;;;;20.50;11.67;;;;;;;;;;5044731;28;20167;-69
2021/12/23 00:49:56;;;;;;;22.07;11.63;;;;;;;;;;5037652;28;20197;-69
2021/12/23 00:52:40;;;;;;;21.67;11.97;;;;;;;;;;5045027;28;20503;-69
2021/12/23 00:55:09;;;;;;;23.70;12.30;;;;;;;;;;5037759;28;20205;-69
2021/12/23 00:57:40;;;;;;;21.13;11.97;;;;;;;;;;5047304;28;20193;-69
2021/12/23 01:00:09;;;;;;;23.27;11.63;;;;;;;;;;5037572;28;20609;-69
2021/12/23 01:02:35;;;;;;;19.90;11.77;;;;;;;;;;5047194;28;20186;-69
2021/12/23 01:05:02;;;;;;;19.40;12.03;;;;;;;;;;5033394;28;20193;-69
2021/12/23 01:07:27;;;;;;;22.03;12.10;;;;;;;;;;5047818;28;20283;-69
2021/12/23 01:09:53;;;;;;;20.83;12.03;;;;;;;;;;5036554;28;20212;-69
2021/12/23 01:12:24;;;;;;;22.17;11.67;;;;;;;;;;5042205;28;20177;-69
2021/12/23 01:15:11;;;;;;;22.60;12.80;;;;;;;;;;5042477;28;20177;-69
2021/12/23 01:17:55;;;;;;;22.53;12.00;;;;;;;;;;5045960;28;20247;-69
2021/12/23 01:20:26;;;;;;;22.30;12.07;;;;;;;;;;5029750;28;20557;-69
2021/12/23 01:22:54;;;;;;;20.10;11.47;;;;;;;;;;5038390;28;20244;-69
2021/12/23 01:25:20;;;;;;;21.07;12.00;;;;;;;;;;5040258;28;20281;-69
2021/12/23 01:27:45;;;;;;;20.93;12.07;;;;;;;;;;5033798;28;20737;-69
2021/12/23 01:30:11;;;;;;;22.87;12.60;;;;;;;;;;5033698;28;20197;-69
2021/12/23 01:32:36;;;;;;;24.00;12.87;;;;;;;;;;5029011;28;20201;-69
2021/12/23 01:35:02;;;;;;;22.90;12.87;;;;;;;;;;5035353;28;20189;-69
2021/12/23 01:37:27;;;;;;;21.67;12.63;;;;;;;;;;5030527;28;20189;-69
2021/12/23 01:39:53;;;;;;;18.77;11.73;;;;;;;;;;5034619;28;20769;-69
2021/12/23 01:42:18;;;;;;;21.80;12.87;;;;;;;;;;5026031;28;20699;-69
2021/12/23 01:44:43;;;;;;;22.80;12.93;;;;;;;;;;5027005;28;20296;-70
2021/12/23 01:47:09;;;;;;;23.57;12.37;;;;;;;;;;5019468;28;20190;-69
2021/12/23 01:49:34;;;;;;;24.90;12.77;;;;;;;;;;5026639;28;20212;-69
2021/12/23 01:52:00;;;;;;;24.73;12.70;;;;;;;;;;5026152;28;20194;-70
2021/12/23 01:54:25;;;;;;;24.77;12.37;;;;;;;;;;5026055;28;20237;-69
2021/12/23 01:56:51;;;;;;;26.67;13.60;;;;;;;;;;5030390;28;20222;-69
2021/12/23 01:59:16;;;;;;;22.17;12.90;;;;;;;;;;5020512;28;20621;-70
2021/12/23 02:01:44;;;;;;;23.80;13.27;;;;;;;;;;5029009;28;21160;-69
2021/12/23 02:04:09;;;;;;;23.60;13.20;;;;;;;;;;5019338;28;20186;-69
2021/12/23 02:06:35;;;;;;;22.17;12.50;;;;;;;;;;5030178;28;21599;-69
2021/12/23 02:09:00;;;;;;;24.13;13.27;;;;;;;;;;5022274;28;20244;-69
2021/12/23 02:11:25;;;;;;;23.60;12.97;;;;;;;;;;5028321;28;20200;-69
2021/12/23 02:13:51;;;;;;;26.83;12.63;;;;;;;;;;5020566;28;20190;-69
2021/12/23 02:16:16;;;;;;;24.33;13.63;;;;;;;;;;5029828;28;20170;-69
2021/12/23 02:18:41;;;;;;;24.97;13.50;;;;;;;;;;5019377;28;20197;-69
2021/12/23 02:21:07;;;;;;;24.83;14.77;;;;;;;;;;5026524;28;20198;-69
2021/12/23 02:23:33;;;;;;;21.13;12.30;;;;;;;;;;5029056;28;20399;-69
2021/12/23 02:25:58;;;;;;;26.47;13.37;;;;;;;;;;5019880;28;20236;-69
2021/12/23 02:28:25;;;;;;;22.90;12.90;;;;;;;;;;5032866;28;20200;-69
2021/12/23 02:30:51;;;;;;;23.03;13.07;;;;;;;;;;5024395;28;20269;-69
2021/12/23 02:33:21;;;;;;;20.97;12.67;;;;;;;;;;5033420;28;20289;-69
2021/12/23 02:35:47;;;;;;;21.20;12.50;;;;;;;;;;5023774;28;20194;-69
2021/12/23 02:38:13;;;;;;;23.93;13.07;;;;;;;;;;5033003;28;20188;-69
2021/12/23 02:40:40;;;;;;;24.97;13.43;;;;;;;;;;5020893;28;20339;-69
2021/12/23 02:43:12;;;;;;;25.63;13.73;;;;;;;;;;5032613;28;20284;-69
2021/12/23 02:45:38;;;;;;;26.77;14.17;;;;;;;;;;5024996;28;20302;-69
2021/12/23 02:48:04;;;;;;;25.00;14.57;;;;;;;;;;5034003;28;20233;-69
2021/12/23 02:50:29;;;;;;;22.77;12.53;;;;;;;;;;5022625;28;20186;-69
2021/12/23 02:52:58;;;;;;;23.73;13.40;;;;;;;;;;5032895;28;20224;-69
2021/12/23 02:55:23;;;;;;;25.77;13.83;;;;;;;;;;5024147;28;20629;-69
2021/12/23 02:57:48;;;;;;;28.07;14.77;;;;;;;;;;5031149;28;20198;-69
2021/12/23 03:00:14;;;;;;;24.73;14.30;;;;;;;;;;5030267;28;20190;-69
2021/12/23 03:02:40;;;;;;;23.73;13.63;;;;;;;;;;5023424;28;20252;-69
2021/12/23 03:05:07;;;;;;;23.13;13.27;;;;;;;;;;5031704;28;20182;-69
2021/12/23 03:07:33;;;;;;;24.53;13.40;;;;;;;;;;5025013;28;21019;-69
2021/12/23 03:09:59;;;;;;;24.53;14.13;;;;;;;;;;5030811;28;20277;-69
2021/12/23 03:12:24;;;;;;;27.10;14.60;;;;;;;;;;5025750;28;20210;-69
2021/12/23 03:14:49;;;;;;;24.70;13.70;;;;;;;;;;5032984;28;20197;-69
2021/12/23 03:17:15;;;;;;;27.77;14.03;;;;;;;;;;5024980;28;20356;-69
2021/12/23 03:19:40;;;;;;;27.87;13.33;;;;;;;;;;5032364;28;20721;-69
2021/12/23 03:22:05;;;;;;;22.67;12.87;;;;;;;;;;5023363;28;20666;-69
2021/12/23 03:24:31;;;;;;;22.80;13.40;;;;;;;;;;5031929;28;20640;-69
2021/12/23 03:26:56;;;;;;;25.17;13.63;;;;;;;;;;5032482;28;20217;-69
2021/12/23 03:29:22;;;;;;;28.73;14.37;;;;;;;;;;5023814;28;20190;-69
2021/12/23 03:31:47;;;;;;;22.80;12.83;;;;;;;;;;5031399;28;20688;-68
2021/12/23 03:34:12;;;;;;;24.07;13.13;;;;;;;;;;5024279;28;20563;-69
2021/12/23 03:36:38;;;;;;;25.87;14.03;;;;;;;;;;5031239;28;20662;-69
2021/12/23 03:39:05;;;;;;;22.27;12.43;;;;;;;;;;5021441;28;20601;-69
2021/12/23 03:41:31;;;;;;;25.83;14.30;;;;;;;;;;5030839;28;20297;-69
2021/12/23 03:43:56;;;;;;;24.33;13.60;;;;;;;;;;5025303;28;20269;-69
2021/12/23 03:46:21;;;;;;;26.63;14.57;;;;;;;;;;5031494;28;20687;-69
2021/12/23 03:48:47;;;;;;;27.27;14.87;;;;;;;;;;5025093;28;20417;-69
2021/12/23 03:51:13;;;;;;;28.33;14.80;;;;;;;;;;5031227;28;20218;-69
2021/12/23 03:53:38;;;;;;;27.20;14.07;;;;;;;;;;5022898;28;20227;-69
2021/12/23 03:56:04;;;;;;;22.83;13.03;;;;;;;;;;5029372;28;20278;-69
2021/12/23 03:58:29;;;;;;;27.80;13.83;;;;;;;;;;5030890;28;21263;-69
2021/12/23 04:00:55;;;;;;;25.57;13.97;;;;;;;;;;5021145;28;20277;-69
2021/12/23 04:03:20;;;;;;;27.00;14.10;;;;;;;;;;5029520;28;20201;-69
2021/12/23 04:05:46;;;;;;;23.27;13.17;;;;;;;;;;5022088;28;20194;-68
2021/12/23 04:08:11;;;;;;;29.00;14.20;;;;;;;;;;5030438;28;20241;-68
2021/12/23 04:10:37;;;;;;;26.40;14.17;;;;;;;;;;5023686;28;20260;-68
2021/12/23 04:13:02;;;;;;;26.10;14.77;;;;;;;;;;5033638;28;20604;-69
2021/12/23 04:15:28;;;;;;;28.93;13.60;;;;;;;;;;5023392;28;20271;-69
2021/12/23 04:17:53;;;;;;;25.83;14.40;;;;;;;;;;5030275;28;20190;-69
2021/12/23 04:20:22;;;;;;;27.43;14.17;;;;;;;;;;5023937;28;20232;-69
2021/12/23 04:22:51;;;;;;;30.13;14.33;;;;;;;;;;5030422;28;20199;-68
2021/12/23 04:25:18;;;;;;;25.73;13.27;;;;;;;;;;5026636;28;20236;-68
2021/12/23 04:27:45;;;;;;;23.70;13.63;;;;;;;;;;5032838;28;20197;-68
2021/12/23 04:30:11;;;;;;;27.10;14.30;;;;;;;;;;5028871;28;20189;-68
2021/12/23 04:32:36;;;;;;;26.87;14.97;;;;;;;;;;5022651;28;20620;-68
2021/12/23 04:35:02;;;;;;;25.73;14.17;;;;;;;;;;5032619;28;20221;-68
2021/12/23 04:37:28;;;;;;;27.90;14.13;;;;;;;;;;5022865;28;20261;-68
2021/12/23 04:39:53;;;;;;;27.90;14.77;;;;;;;;;;5031830;28;20186;-68
2021/12/23 04:42:19;;;;;;;26.43;14.73;;;;;;;;;;5022324;28;20217;-68
2021/12/23 04:44:44;;;;;;;26.27;14.60;;;;;;;;;;5030956;28;20589;-68
2021/12/23 04:47:09;;;;;;;27.17;14.40;;;;;;;;;;5021126;28;20194;-68
2021/12/23 04:49:35;;;;;;;27.10;14.63;;;;;;;;;;5027333;28;20255;-68
2021/12/23 04:52:00;;;;;;;26.47;13.63;;;;;;;;;;5020805;28;20212;-68
2021/12/23 04:54:25;;;;;;;24.03;13.57;;;;;;;;;;5029459;28;20220;-68
2021/12/23 04:56:51;;;;;;;28.60;15.20;;;;;;;;;;5022979;28;20280;-68
2021/12/23 04:59:17;;;;;;;26.93;15.03;;;;;;;;;;5026021;28;20629;-68
2021/12/23 05:01:42;;;;;;;24.53;13.83;;;;;;;;;;5032027;28;20288;-68
2021/12/23 05:04:07;;;;;;;27.93;15.33;;;;;;;;;;5023872;28;20595;-68
2021/12/23 05:06:33;;;;;;;27.47;15.43;;;;;;;;;;5029898;28;20551;-68
2021/12/23 05:08:58;;;;;;;28.63;15.37;;;;;;;;;;5024823;28;20249;-68
2021/12/23 05:11:23;;;;;;;27.53;15.30;;;;;;;;;;5030470;28;20722;-68
2021/12/23 05:13:49;;;;;;;24.27;14.27;;;;;;;;;;5022656;28;20220;-68
2021/12/23 05:16:18;;;;;;;28.30;15.80;;;;;;;;;;5031146;28;20189;-68
2021/12/23 05:18:44;;;;;;;27.73;15.97;;;;;;;;;;5021908;28;20201;-68
2021/12/23 05:21:10;;;;;;;29.10;15.60;;;;;;;;;;5029387;28;20233;-68
2021/12/23 05:23:35;;;;;;;27.97;15.50;;;;;;;;;;5020145;28;20239;-68
2021/12/23 05:26:01;;;;;;;30.97;16.73;;;;;;;;;;5027060;28;20247;-68
2021/12/23 05:28:26;;;;;;;31.57;16.87;;;;;;;;;;5034313;28;20559;-68
2021/12/23 05:30:52;;;;;;;31.53;16.13;;;;;;;;;;5022043;28;20625;-68
2021/12/23 05:33:17;;;;;;;30.73;16.07;;;;;;;;;;5030623;28;20207;-68
2021/12/23 05:35:43;;;;;;;29.80;16.70;;;;;;;;;;5019709;28;20207;-68
2021/12/23 05:38:08;;;;;;;29.00;15.60;;;;;;;;;;5032482;28;20192;-68
2021/12/23 05:40:35;;;;;;;29.07;15.77;;;;;;;;;;5019984;28;20489;-68
2021/12/23 05:43:02;;;;;;;32.47;16.67;;;;;;;;;;5028421;28;20251;-68
2021/12/23 05:45:28;;;;;;;30.63;16.77;;;;;;;;;;5022333;28;20192;-68
2021/12/23 05:47:53;;;;;;;29.07;16.00;;;;;;;;;;5027709;28;20189;-68
2021/12/23 05:50:20;;;;;;;27.53;16.10;;;;;;;;;;5019492;28;20190;-68
2021/12/23 05:52:46;;;;;;;34.90;17.20;;;;;;;;;;5031024;28;20188;-68
2021/12/23 05:55:13;;;;;;;32.47;18.27;;;;;;;;;;5017836;28;21202;-68
2021/12/23 05:57:39;;;;;;;31.80;17.30;;;;;;;;;;5028916;28;20639;-68
2021/12/23 06:00:12;;;;;;;32.73;18.50;;;;;;;;;;5030132;28;20191;-68
2021/12/23 06:02:38;;;;;;;35.60;17.27;;;;;;;;;;5029329;28;20720;-68
2021/12/23 06:05:05;;;;;;;36.87;17.53;;;;;;;;;;5030492;28;20273;-67
2021/12/23 06:07:31;;;;;;;36.07;17.47;;;;;;;;;;5026141;28;20249;-68
2021/12/23 06:09:56;;;;;;;34.37;18.07;;;;;;;;;;5029712;28;20190;-68
2021/12/23 06:12:22;;;;;;;34.17;17.93;;;;;;;;;;5027564;28;20814;-68
2021/12/23 06:14:47;;;;;;;33.33;17.57;;;;;;;;;;5035260;28;20196;-68
2021/12/23 06:17:12;;;;;;;30.13;16.93;;;;;;;;;;5023289;28;20277;-68
2021/12/23 06:19:38;;;;;;;31.10;16.97;;;;;;;;;;5030786;28;20215;-69
2021/12/23 06:22:04;;;;;;;36.37;18.93;;;;;;;;;;5020775;28;20236;-69
2021/12/23 06:24:29;;;;;;;35.53;18.60;;;;;;;;;;5033175;28;20680;-68
2021/12/23 06:26:54;;;;;;;34.10;17.67;;;;;;;;;;5020964;28;20282;-68
2021/12/23 06:29:20;;;;;;;34.03;17.80;;;;;;;;;;5032388;28;20209;-69
2021/12/23 06:31:45;;;;;;;33.13;18.37;;;;;;;;;;5035577;28;20265;-68
2021/12/23 06:34:10;;;;;;;31.60;17.13;;;;;;;;;;5024084;28;20182;-68
2021/12/23 06:36:36;;;;;;;36.33;17.63;;;;;;;;;;5031985;28;20543;-68
2021/12/23 06:39:02;;;;;;;34.23;18.50;;;;;;;;;;5026132;28;20626;-68
2021/12/23 06:41:28;;;;;;;34.93;17.33;;;;;;;;;;5032977;28;20213;-69
2021/12/23 06:43:53;;;;;;;31.10;17.27;;;;;;;;;;5025093;28;20186;-68
2021/12/23 06:46:18;;;;;;;33.37;18.20;;;;;;;;;;5034020;28;20189;-68
2021/12/23 06:48:44;;;;;;;33.70;18.40;;;;;;;;;;5024808;28;20196;-69
2021/12/23 06:51:09;;;;;;;35.40;18.80;;;;;;;;;;5034643;28;20207;-68
2021/12/23 06:53:34;;;;;;;31.07;17.87;;;;;;;;;;5021870;28;20190;-68
2021/12/23 06:56:01;;;;;;;33.70;18.10;;;;;;;;;;5034361;28;20247;-68
2021/12/23 06:58:26;;;;;;;34.93;19.33;;;;;;;;;;5024568;28;20494;-68
2021/12/23 07:00:54;;;;;;;34.93;18.57;;;;;;;;;;5032536;28;21335;-68
2021/12/23 07:03:20;;;;;;;36.43;19.87;;;;;;;;;;5029945;28;20672;-68
2021/12/23 07:05:45;;;;;;;33.53;18.57;;;;;;;;;;5020408;28;20668;-68
2021/12/23 07:08:24;;;;;;;30.93;18.53;;;;;;;;;;5031517;28;20336;-68
2021/12/23 07:10:50;;;;;;;33.40;18.63;;;;;;;;;;5023095;28;20235;-68
2021/12/23 07:13:15;;;;;;;34.87;19.10;;;;;;;;;;5031211;28;20186;-67
2021/12/23 07:15:41;;;;;;;35.03;19.07;;;;;;;;;;5020950;28;20201;-69
2021/12/23 07:18:06;;;;;;;32.30;18.30;;;;;;;;;;5033201;28;20189;-69
2021/12/23 07:20:31;;;;;;;36.03;19.67;;;;;;;;;;5022515;28;20229;-68
2021/12/23 07:22:57;;;;;;;37.60;19.13;;;;;;;;;;5031290;28;20634;-69
2021/12/23 07:25:23;;;;;;;32.33;18.17;;;;;;;;;;5020773;28;20743;-67
2021/12/23 07:27:48;;;;;;;32.77;18.53;;;;;;;;;;5030988;28;20177;-69
2021/12/23 07:30:16;;;;;;;32.27;19.03;;;;;;;;;;5022956;28;20201;-69
2021/12/23 07:32:42;;;;;;;36.63;18.60;;;;;;;;;;5029627;28;20178;-69
2021/12/23 07:35:08;;;;;;;34.70;18.97;;;;;;;;;;5032104;28;20617;-69
2021/12/23 07:37:35;;;;;;;34.70;19.90;;;;;;;;;;5023503;28;20272;-68
2021/12/23 07:40:02;;;;;;;31.97;17.87;;;;;;;;;;5030678;28;20288;-68
2021/12/23 07:42:30;;;;;;;36.60;19.77;;;;;;;;;;5023160;28;20206;-68
2021/12/23 07:44:55;;;;;;;37.10;23.00;;;;;;;;;;5029670;28;21154;-69
2021/12/23 07:47:22;;;;;;;34.17;20.20;;;;;;;;;;5021811;28;20277;-69
2021/12/23 07:49:47;;;;;;;37.70;20.17;;;;;;;;;;5032479;28;20228;-69
2021/12/23 07:52:14;;;;;;;37.37;19.63;;;;;;;;;;5021575;28;20186;-69
2021/12/23 07:54:39;;;;;;;33.33;18.77;;;;;;;;;;5028244;28;20567;-67
2021/12/23 07:57:05;;;;;;;33.50;19.37;;;;;;;;;;5024813;28;20190;-67
2021/12/23 07:59:31;;;;;;;35.40;19.50;;;;;;;;;;5028049;28;20243;-67
2021/12/23 08:01:57;;;;;;;36.73;19.77;;;;;;;;;;5020676;28;20201;-68
2021/12/23 08:04:36;;;;;;;33.20;18.95;;;;;;;;;;4796026;28;10000633;-68
2021/12/23 08:07:03;;;;;;;37.43;20.00;;;;;;;;;;5021275;28;20390;-68
2021/12/23 08:09:29;;;;;;;35.40;19.00;;;;;;;;;;5026020;28;20312;-67
2021/12/23 08:11:54;;;;;;;38.63;19.80;;;;;;;;;;5024341;28;23354;-67
2021/12/23 08:14:20;;;;;;;35.13;19.90;;;;;;;;;;5017580;28;20609;-67
2021/12/23 08:16:46;;;;;;;32.70;19.13;;;;;;;;;;5026368;28;20193;-67
2021/12/23 08:19:11;;;;;;;37.87;19.30;;;;;;;;;;5017885;28;20197;-68
2021/12/23 08:21:37;;;;;;;36.87;19.37;;;;;;;;;;5028905;28;20217;-67
2021/12/23 08:24:02;;;;;;;35.53;19.17;;;;;;;;;;5017316;28;20194;-67
2021/12/23 08:26:29;;;;;;;32.10;19.00;;;;;;;;;;5025576;28;20194;-67
2021/12/23 08:28:57;;;;;;;35.73;19.80;;;;;;;;;;5017989;28;20288;-67
2021/12/23 08:31:24;;;;;;;36.30;19.47;;;;;;;;;;5028571;28;20204;-67
2021/12/23 08:33:50;;;;;;;37.70;18.97;;;;;;;;;;5020987;28;20189;-67
2021/12/23 08:36:15;;;;;;;37.87;20.03;;;;;;;;;;5027249;28;20688;-67
2021/12/23 08:38:41;;;;;;;39.33;20.43;;;;;;;;;;5017950;28;20198;-67
2021/12/23 08:41:07;;;;;;;36.53;20.40;;;;;;;;;;5021026;28;20869;-67
2021/12/23 08:43:33;;;;;;;33.53;18.73;;;;;;;;;;5024625;28;20206;-67
2021/12/23 08:45:58;;;;;;;38.73;20.37;;;;;;;;;;5017111;28;20197;-67
2021/12/23 08:48:24;;;;;;;36.57;21.17;;;;;;;;;;5024054;28;20202;-67
2021/12/23 08:50:49;;;;;;;39.20;21.37;;;;;;;;;;5014593;28;20208;-68
2021/12/23 08:53:14;;;;;;;37.73;20.43;;;;;;;;;;5027691;28;20543;-67
2021/12/23 08:55:40;;;;;;;41.93;21.40;;;;;;;;;;5016368;28;20271;-68
2021/12/23 08:58:05;;;;;;;36.87;20.20;;;;;;;;;;5025151;28;20189;-67
2021/12/23 09:00:34;;;;;;;41.77;21.20;;;;;;;;;;5018267;28;20636;-67
2021/12/23 09:03:00;;;;;;;43.60;22.17;;;;;;;;;;5025141;28;20194;-67
2021/12/23 09:05:25;;;;;;;41.10;22.10;;;;;;;;;;5015995;28;20185;-67
2021/12/23 09:07:51;;;;;;;42.23;21.60;;;;;;;;;;5023610;28;20322;-68
2021/12/23 09:10:16;;;;;;;41.03;21.07;;;;;;;;;;5019885;28;20892;-67
2021/12/23 09:12:43;;;;;;;38.73;21.47;;;;;;;;;;5023512;28;20317;-67
2021/12/23 09:15:11;;;;;;;39.47;20.73;;;;;;;;;;5023967;28;20216;-67
2021/12/23 09:17:36;;;;;;;40.70;20.73;;;;;;;;;;5015161;28;20652;-66
2021/12/23 09:20:04;;;;;;;39.30;20.77;;;;;;;;;;5019948;28;20220;-68
2021/12/23 09:22:29;;;;;;;44.63;21.70;;;;;;;;;;5012587;28;20264;-68
2021/12/23 09:24:57;;;;;;;41.37;21.93;;;;;;;;;;5019308;28;20301;-67
2021/12/23 09:27:35;;;;;;;37.70;20.17;;;;;;;;;;5013805;28;20217;-67
2021/12/23 09:32:53;;;;;;;37.53;20.13;;;;;;;;;;5017117;28;20219;-68
2021/12/23 09:35:25;;;;;;;43.80;22.73;;;;;;;;;;5028205;28;20280;-67
2021/12/23 09:37:51;;;;;;;41.53;21.90;;;;;;;;;;5018198;28;20648;-68
2021/12/23 09:40:18;;;;;;;43.97;21.97;;;;;;;;;;5026648;28;20280;-67
2021/12/23 09:42:46;;;;;;;44.33;21.63;;;;;;;;;;5016054;28;20633;-67
2021/12/23 09:45:14;;;;;;;43.70;22.87;;;;;;;;;;5026236;28;20205;-67
2021/12/23 09:47:43;;;;;;;42.60;22.83;;;;;;;;;;5017708;28;20198;-67
2021/12/23 09:50:11;;;;;;;46.97;24.00;;;;;;;;;;5026035;28;20201;-67
2021/12/23 09:52:41;;;;;;;43.37;23.17;;;;;;;;;;5015501;28;20272;-67
2021/12/23 09:55:08;;;;;;;43.90;22.10;;;;;;;;;;5024587;28;20829;-67
2021/12/23 09:57:33;;;;;;;42.50;22.33;;;;;;;;;;5025154;28;20196;-67
2021/12/23 09:59:59;;;;;;;41.10;22.57;;;;;;;;;;5015918;28;20193;-67
2021/12/23 10:02:24;;;;;;;45.83;23.70;;;;;;;;;;5026561;28;20292;-68
2021/12/23 10:04:50;;;;;;;42.43;23.20;;;;;;;;;;5012292;28;20292;-69
2021/12/23 10:07:15;;;;;;;46.67;23.93;;;;;;;;;;5024404;28;20193;-72
2021/12/23 10:09:48;;;;;;;43.10;22.83;;;;;;;;;;5014606;28;20291;-72
2021/12/23 10:30:10;;;;;;;47.00;24.27;;;;;;;;;;5028782;28;20256;-74
2021/12/23 10:31:45;;;;;;;50.63;24.57;;;;;;;;;;5017799;28;20267;-73
2021/12/23 10:37:15;;;;;;;47.70;23.90;;;;;;;;;;5020434;28;20201;-74
2021/12/23 10:40:06;;;;;;;50.53;24.13;;;;;;;;;;5026380;28;20194;-73
2021/12/23 10:42:32;;;;;;;48.80;23.37;;;;;;;;;;5021889;28;20859;-74
2021/12/23 10:45:06;;;;;;;45.27;22.37;;;;;;;;;;5030733;28;20189;-76
2021/12/23 10:47:56;;;;;;;51.00;24.60;;;;;;;;;;5019492;28;20657;-75
2021/12/23 10:50:38;;;;;;;48.87;23.63;;;;;;;;;;5028763;28;20181;-76
2021/12/23 10:53:40;;;;;;;43.17;23.93;;;;;;;;;;5035754;28;20496;-76
2021/12/23 10:59:05;;;;;;;45.60;23.10;;;;;;;;;;5031184;28;20244;-74
2021/12/23 11:01:31;;;;;;;46.67;22.87;;;;;;;;;;5022472;28;20195;-74
2021/12/23 11:04:01;;;;;;;42.50;21.80;;;;;;;;;;5030543;28;20526;-75
2021/12/23 11:06:36;;;;;;;48.93;23.87;;;;;;;;;;5027387;28;20610;-73
2021/12/23 11:09:37;;;;;;;43.90;22.20;;;;;;;;;;5031499;28;20228;-73
2021/12/23 11:27:25;;;;;;;41.50;22.27;;;;;;;;;;5019893;28;20189;-73
2021/12/23 11:35:33;;;;;;;44.40;22.17;;;;;;;;;;5029455;28;20206;-73
2021/12/23 11:37:55;;;;;;;44.17;21.80;;;;;;;;;;5029757;28;20198;-73
2021/12/23 11:45:30;;;;;;;41.33;22.27;;;;;;;;;;5019545;28;20202;-73
2021/12/23 11:47:57;;;;;;;40.43;21.00;;;;;;;;;;5030488;28;20194;-73
2021/12/23 11:50:30;;;;;;;39.97;20.97;;;;;;;;;;5020895;28;20789;-73
2021/12/23 11:52:56;;;;;;;39.83;21.73;;;;;;;;;;5028525;28;20244;-73
2021/12/23 11:55:21;;;;;;;39.30;22.20;;;;;;;;;;5024309;28;20240;-72
2021/12/23 11:57:48;;;;;;;42.23;21.67;;;;;;;;;;5030734;28;20182;-72
2021/12/23 12:02:40;;;;;;;43.67;20.30;;;;;;;;;;5027815;28;20697;-72
2021/12/23 12:05:13;;;;;;;46.87;22.97;;;;;;;;;;5020800;28;20197;-73
2021/12/23 12:07:41;;;;;;;44.30;22.53;;;;;;;;;;5027396;28;20280;-71
2021/12/23 12:10:09;;;;;;;41.30;21.73;;;;;;;;;;5022840;28;21413;-71
2021/12/23 12:13:00;;;;;;;45.00;22.07;;;;;;;;;;5025566;28;20725;-73
2021/12/23 12:15:47;;;;;;;42.60;21.97;;;;;;;;;;5021855;28;20235;-71
2021/12/23 12:18:15;;;;;;;43.10;21.67;;;;;;;;;;5033129;28;20525;-72
2021/12/23 12:20:45;;;;;;;46.03;22.30;;;;;;;;;;5023081;28;20197;-71
2021/12/23 12:23:19;;;;;;;41.10;21.70;;;;;;;;;;5030277;28;20177;-72
2021/12/23 12:25:53;;;;;;;44.17;22.07;;;;;;;;;;5023386;28;20594;-70
2021/12/23 12:28:27;;;;;;;41.47;21.67;;;;;;;;;;5028518;28;20279;-70
2021/12/23 12:30:58;;;;;;;44.57;21.40;;;;;;;;;;5030518;28;20547;-72
2021/12/23 12:33:23;;;;;;;45.47;21.77;;;;;;;;;;5023117;28;20504;-70
2021/12/23 12:36:08;;;;;;;38.43;21.47;;;;;;;;;;5026690;28;20198;-70
2021/12/23 12:38:42;;;;;;;40.87;21.00;;;;;;;;;;5017753;28;20197;-70
2021/12/23 12:41:18;;;;;;;39.23;20.87;;;;;;;;;;5026170;28;20209;-71
2021/12/23 12:43:46;;;;;;;41.17;21.27;;;;;;;;;;5020342;28;20660;-70
2021/12/23 12:46:15;;;;;;;43.47;22.30;;;;;;;;;;5025217;28;20190;-70
2021/12/23 12:48:56;;;;;;;42.43;22.23;;;;;;;;;;5019576;28;20193;-70
2021/12/23 12:51:26;;;;;;;43.37;21.60;;;;;;;;;;5031845;28;20772;-70
2021/12/23 12:53:55;;;;;;;42.33;22.17;;;;;;;;;;5020530;28;20781;-70
2021/12/23 12:56:26;;;;;;;39.43;20.77;;;;;;;;;;5030289;28;20189;-68
2021/12/23 12:58:54;;;;;;;45.47;22.83;;;;;;;;;;5021639;28;20556;-68
2021/12/23 13:01:34;;;;;;;44.63;22.30;;;;;;;;;;5030162;28;20213;-68
2021/12/23 13:04:01;;;;;;;46.67;22.67;;;;;;;;;;5021006;28;20287;-69
2021/12/23 13:06:37;;;;;;;41.70;21.20;;;;;;;;;;5027905;28;20306;-69
2021/12/23 13:09:04;;;;;;;39.93;21.67;;;;;;;;;;5017046;28;20331;-68
2021/12/23 13:11:30;;;;;;;41.40;21.60;;;;;;;;;;5028862;28;20625;-69
2021/12/23 13:14:01;;;;;;;46.70;20.90;;;;;;;;;;5018512;28;20482;-69
2021/12/23 13:16:28;;;;;;;44.63;22.03;;;;;;;;;;5028907;28;20284;-70
2021/12/23 13:19:10;;;;;;;40.57;22.63;;;;;;;;;;5018485;28;20197;-70
2021/12/23 13:21:40;;;;;;;41.27;22.00;;;;;;;;;;5028723;28;20213;-69
2021/12/23 13:24:06;;;;;;;43.67;21.43;;;;;;;;;;5020985;28;20190;-69
2021/12/23 13:26:31;;;;;;;39.57;21.17;;;;;;;;;;5031042;28;20201;-69
2021/12/23 13:28:59;;;;;;;48.37;23.37;;;;;;;;;;5031559;28;20278;-69
2021/12/23 13:31:33;;;;;;;42.30;22.07;;;;;;;;;;5021093;28;20198;-69
2021/12/23 13:34:03;;;;;;;44.93;21.10;;;;;;;;;;5028404;28;20198;-69
2021/12/23 13:36:32;;;;;;;43.10;21.83;;;;;;;;;;5023526;28;20186;-69
2021/12/23 13:39:07;;;;;;;42.77;22.07;;;;;;;;;;5029103;28;20219;-69
2021/12/23 13:41:36;;;;;;;44.80;22.13;;;;;;;;;;5019056;28;20509;-69
2021/12/23 13:44:21;;;;;;;45.83;22.53;;;;;;;;;;5029772;28;20215;-69
2021/12/23 13:47:09;;;;;;;44.27;23.33;;;;;;;;;;5019623;28;20189;-69
2021/12/23 13:49:36;;;;;;;42.73;22.20;;;;;;;;;;5029914;28;20201;-69
2021/12/23 13:52:06;;;;;;;46.40;23.30;;;;;;;;;;5018638;28;20247;-69
2021/12/23 13:54:34;;;;;;;44.10;22.33;;;;;;;;;;5027433;28;20219;-69
2021/12/23 13:57:00;;;;;;;43.00;22.37;;;;;;;;;;5022641;28;20605;-69
2021/12/23 13:59:28;;;;;;;48.33;22.80;;;;;;;;;;5027283;28;20581;-69
2021/12/23 14:02:11;;;;;;;43.87;22.67;;;;;;;;;;5018054;28;20304;-69
2021/12/23 14:04:42;;;;;;;39.57;20.67;;;;;;;;;;5026172;28;20198;-69
2021/12/23 14:07:20;;;;;;;45.63;22.47;;;;;;;;;;5019402;28;20641;-69
2021/12/23 14:09:52;;;;;;;41.73;21.83;;;;;;;;;;5026748;28;20229;-68
2021/12/23 14:12:21;;;;;;;40.00;21.00;;;;;;;;;;5019055;28;20335;-69
2021/12/23 14:15:02;;;;;;;38.87;20.77;;;;;;;;;;5027388;28;20293;-69
2021/12/23 14:17:33;;;;;;;45.10;22.50;;;;;;;;;;5019412;28;20563;-69
2021/12/23 14:23:12;;;;;;;41.23;21.17;;;;;;;;;;5028628;28;20188;-69
2021/12/23 14:25:33;;;;;;;40.47;20.53;;;;;;;;;;5029061;28;20216;-69
2021/12/23 14:27:59;;;;;;;40.57;21.07;;;;;;;;;;5021138;28;20230;-69
2021/12/23 14:30:39;;;;;;;42.60;22.30;;;;;;;;;;5030354;28;20243;-69
2021/12/23 14:33:09;;;;;;;41.80;21.63;;;;;;;;;;5023167;28;20560;-69
2021/12/23 14:35:35;;;;;;;42.03;21.60;;;;;;;;;;5030542;28;20272;-69
2021/12/23 14:38:01;;;;;;;44.50;21.93;;;;;;;;;;5022833;28;20624;-69
2021/12/23 14:40:26;;;;;;;44.70;20.83;;;;;;;;;;5031528;28;20196;-69
2021/12/23 14:43:02;;;;;;;44.20;22.20;;;;;;;;;;5030202;28;20218;-69
2021/12/23 14:45:28;;;;;;;44.13;22.63;;;;;;;;;;5023310;28;20299;-69
2021/12/23 14:48:10;;;;;;;42.73;21.40;;;;;;;;;;5030082;28;20216;-69
2021/12/23 14:50:48;;;;;;;43.77;22.37;;;;;;;;;;5022096;28;20201;-69
2021/12/23 14:53:21;;;;;;;43.03;21.30;;;;;;;;;;5033084;28;20173;-69
2021/12/23 14:55:54;;;;;;;42.47;22.27;;;;;;;;;;5022004;28;20217;-69
2021/12/23 14:58:20;;;;;;;44.50;21.50;;;;;;;;;;5033999;28;20194;-69
2021/12/23 15:00:46;;;;;;;45.57;21.27;;;;;;;;;;5022388;28;20204;-69
2021/12/23 15:03:12;;;;;;;47.70;24.10;;;;;;;;;;5034516;28;20193;-69
2021/12/23 15:05:40;;;;;;;44.63;21.57;;;;;;;;;;5020654;28;20253;-69
2021/12/23 15:08:14;;;;;;;42.53;21.37;;;;;;;;;;5028852;28;20246;-68
2021/12/23 15:10:52;;;;;;;48.77;22.13;;;;;;;;;;5021681;28;20189;-68
2021/12/23 15:13:38;;;;;;;49.33;22.23;;;;;;;;;;5030280;28;20715;-69
2021/12/23 15:16:26;;;;;;;44.90;22.20;;;;;;;;;;5023593;28;20336;-69
2021/12/23 15:19:24;;;;;;;43.23;21.53;;;;;;;;;;5031170;28;20198;-68
2021/12/23 15:21:53;;;;;;;46.17;21.50;;;;;;;;;;5022949;28;20693;-68
2021/12/23 15:24:37;;;;;;;44.08;22.33;;;;;;;;;;4916725;28;10001072;-68
2021/12/23 15:27:06;;;;;;;46.20;22.00;;;;;;;;;;5019368;28;20413;-68